Flight Track Log - Related Links

Times and Time Zones

All times are in EDT time to prevent confusion due to time zone crossing. See the SWA183 flight status page for this flight to view local times or setup timezone preferences in your user account.

Time Position Orientation Groundspeed Altitude Reporting Facility
EDT Latitude Longitude Course Direction KTS MPH feet Rate Location/Type
Sat 09:17:50 PM 33.9500 -118.5000 260° West 200 230 3,800  Level Southern California TRACON
Sat 09:19:03 PM 33.9364 -118.5944 260° West 256 295 6,400 2,328 Climbing Los Angeles Center
Sat 09:20:04 PM 33.9686 -118.6719 297° West 287 330 9,000 1,268 Climbing Los Angeles Center
Sat 09:21:06 PM 34.0386 -118.7086 337° Northwest 282 325 9,000  Level Los Angeles Center
Sat 09:22:19 PM 34.0983 -118.6625 33° Northeast 276 318 9,000 1,244 Level Los Angeles Center
Sat 09:23:21 PM 34.1875 -118.6414 11° North 284 327 11,800 2,878 Climbing Los Angeles Center
Sat 09:24:22 PM 34.2933 -118.6806 343° North 340 391 14,900 3,171 Climbing Los Angeles Center
Sat 09:25:24 PM 34.3958 -118.7164 344° North 378 435 18,300 3,366 Climbing Los Angeles Center
Sat 09:26:25 PM 34.5006 -118.7533 344° North 390 449 21,800 3,220 Climbing Los Angeles Center
Sat 09:27:27 PM 34.6083 -118.7911 344° North 400 460 24,900 2,488 Climbing Los Angeles Center
Sat 09:28:28 PM 34.6958 -118.8236 343° North 404 465 26,900 2,439 Climbing Los Angeles Center
Sat 09:29:30 PM 34.8322 -118.8722 344° North 423 487 29,900 2,390 Climbing Los Angeles Center
Sat 09:30:31 PM 34.9494 -118.9253 340° North 428 493 31,800 1,033 Climbing Los Angeles Center
Sat 09:31:32 PM 35.0594 -118.9739 340° North 425 489 32,000 98 Climbing Los Angeles Center
Sat 09:32:34 PM 35.1664 -119.0225 340° North 415 478 32,000  Level Los Angeles Center
Sat 09:33:35 PM 35.2719 -119.0717 339° North 409 471 32,000  Level Los Angeles Center
Sat 09:34:36 PM 35.3981 -119.1283 340° North 404 465 32,000  Level Los Angeles Center
Sat 09:35:38 PM 35.5017 -119.1742 340° North 400 460 32,000  Level Los Angeles Center
Sat 09:36:39 PM 35.6056 -119.2219 340° North 398 458 32,000  Level Los Angeles Center
Sat 09:37:40 PM 35.7114 -119.2706 340° North 403 464 32,000  Level Los Angeles Center
Sat 09:38:29 PM 35.7953 -119.3078 340° North 408 470 32,000  Level Oakland Center
Sat 09:39:30 PM 35.9019 -119.3572 339° North 410 472 32,000  Level Oakland Center
Sat 09:40:31 PM 36.0069 -119.4067 339° North 407 468 32,000  Level Oakland Center
Sat 09:41:32 PM 36.1133 -119.4539 340° North 407 468 32,000  Level Oakland Center
Sat 09:42:33 PM 36.2183 -119.5019 340° North 404 465 32,000  Level Oakland Center
Sat 09:43:34 PM 36.3439 -119.5606 339° North 400 460 32,000  Level Oakland Center
Sat 09:44:35 PM 36.4500 -119.6100 339° North 407 468 32,000  Level Oakland Center
Sat 09:45:36 PM 36.5547 -119.6594 339° North 406 467 32,000  Level Oakland Center
Sat 09:46:37 PM 36.6589 -119.7097 339° North 403 464 32,000  Level Oakland Center
Sat 09:47:38 PM 36.7647 -119.7586 340° North 405 466 32,000  Level Oakland Center
Sat 09:48:39 PM 36.8708 -119.8111 338° Northwest 412 474 32,000 -393 Level Oakland Center
Sat 09:49:40 PM 36.9619 -119.8933 324° Northwest 406 467 31,200 -885 Descending Oakland Center
Sat 09:50:41 PM 37.0508 -119.9817 322° Northwest 409 471 30,200 -992 Descending Oakland Center
Sat 09:51:41 PM 37.1422 -120.0728 322° Northwest 406 467 29,200 -992 Descending Oakland Center
Sat 09:52:42 PM 37.2297 -120.1606 321° Northwest 410 472 28,200 -1,230 Descending Oakland Center
Sat 09:53:43 PM 37.3147 -120.2456 322° Northwest 394 453 26,700 -1,770 Descending Oakland Center
Sat 09:54:44 PM 37.4000 -120.3206 325° Northwest 374 430 24,600 -1,898 Descending Oakland Center
Sat 09:55:21 PM 37.4500 -120.3833 315° West 369 425 23,600 -1,223 Descending Northern Cal TRACON
Sat 09:56:27 PM 37.5500 -120.4667 327° Northwest 365 420 22,500 -952 Descending Northern Cal TRACON
Sat 09:57:27 PM 37.6167 -120.5500 315° West 359 413 21,600 -825 Descending Northern Cal TRACON
Sat 09:57:47 PM 37.6389 -120.5589 342° North 361 415 21,400 -1,400 Descending Oakland Center
Sat 09:58:27 PM 37.7000 -120.6333 316° Northwest 353 406 20,200 -1,660 Descending Northern Cal TRACON
Sat 09:59:21 PM 37.7667 -120.7000 322° Northwest 344 396 18,800 -1,263 Descending Northern Cal TRACON
Sat 10:00:21 PM 37.8333 -120.7667 322° Northwest 328 377 17,800 -955 Descending Northern Cal TRACON
Sat 10:00:49 PM 37.8750 -120.7983 329° Northwest 328 377 17,400 -944 Descending Oakland Center
Sat 10:01:50 PM 37.9456 -120.8700 321° Northwest 325 374 16,400 -984 Descending Oakland Center
Sat 10:02:51 PM 38.0164 -120.9422 321° Northwest 326 375 15,400 -984 Descending Oakland Center
Sat 10:03:52 PM 38.0839 -121.0147 320° Northwest 320 368 14,400 -984 Descending Oakland Center
Sat 10:04:53 PM 38.1408 -121.0994 311° West 315 362 13,400 -1,011 Descending Oakland Center
Sat 10:05:27 PM 38.1667 -121.1500 303° West 313 360 12,800 -957 Descending Northern Cal TRACON
Sat 10:06:27 PM 38.2333 -121.2333 316° Northwest 309 356 11,900 -950 Descending Northern Cal TRACON
Sat 10:07:27 PM 38.2833 -121.3167 307° West 304 350 10,900 -950 Descending Northern Cal TRACON
Sat 10:08:27 PM 38.3333 -121.4000 307° West 298 343 10,000 -450 Descending Northern Cal TRACON
Sat 10:09:27 PM 38.4000 -121.4833 316° Northwest 294 338 10,000 -526 Level Northern Cal TRACON
Sat 10:10:21 PM 38.4500 -121.5500 314° West 293 337 9,000 -1,300 Descending Northern Cal TRACON
Sat 10:11:27 PM 38.5167 -121.6000 330° Northwest 279 321 7,400 -1,408 Descending Northern Cal TRACON
Sat 10:11:59 PM 38.5425 -121.6267 321° Northwest 279 321 6,700 -1,419 Descending Oakland Center
Sat 10:13:00 PM 38.6078 -121.6775 329° Northwest 274 315 5,200 -1,574 Descending Oakland Center
Sat 10:14:01 PM 38.6792 -121.6942 350° North 267 307 3,500 -1,082 Descending Oakland Center
Sat 10:15:02 PM 38.7511 -121.6961 359° North 257 296 3,000 -541 Descending Oakland Center
Sat 10:16:03 PM 38.8036 -121.6939 North 199 229 2,400 -595 Descending Oakland Center
Sat 10:17:03 PM 38.8158 -121.6344 75° East 183 211 1,800 -692 Descending Oakland Center
Sat 10:17:21 PM 38.8167 -121.6167 87° East 166 191 1,500 -462 Descending Northern Cal TRACON
Sat 10:18:21 PM 38.7667 -121.6000 165° South 148 170 1,200 -450 Descending Northern Cal TRACON
Sat 10:19:21 PM 38.7333 -121.6000 180° South 123 142 600 -600 Descending Northern Cal TRACON

Login

Don't have an account? Register now (free) for customized features, flight alerts, and more!